Time;durP1;ratioP1;P1;durP2;ratioP2;P2;SDS_P1;SDS_P2;PMS_P1;PMS_P2;Temp;Humidity;BMP_temperature;BMP_pressure;BME280_temperature;BME280_humidity;BME280_pressure;Samples;Min_cycle;Max_cycle;Signal;HPM_P1;HPM_P2
2021/07/16 00:01:23;;;;;;;26.65;17.67;;;20.60;97.50;;;;;;4969541;28;20515;-60
2021/07/16 00:03:48;;;;;;;22.02;19.25;;;20.40;97.60;;;;;;4954437;28;20035;-60
2021/07/16 00:06:14;;;;;;;25.30;18.48;;;20.40;97.70;;;;;;4971083;28;20047;-62
2021/07/16 00:08:39;;;;;;;23.88;19.55;;;20.30;97.70;;;;;;4969370;28;20034;-61
2021/07/16 00:11:05;;;;;;;28.50;18.20;;;20.30;97.80;;;;;;4967747;28;20151;-61
2021/07/16 00:13:30;;;;;;;24.58;17.77;;;20.30;97.70;;;;;;4969055;28;20514;-61
2021/07/16 00:15:56;;;;;;;22.42;17.38;;;20.40;97.60;;;;;;4967877;28;20423;-61
2021/07/16 00:18:22;;;;;;;22.85;17.40;;;20.50;97.30;;;;;;4969237;28;20491;-61
2021/07/16 00:20:48;;;;;;;22.92;17.98;;;20.60;97.20;;;;;;4968051;28;20071;-60
2021/07/16 00:23:14;;;;;;;25.25;15.93;;;20.60;97.00;;;;;;4969598;28;20483;-61
2021/07/16 00:25:40;;;;;;;23.98;17.58;;;20.60;96.90;;;;;;4971856;28;20050;-60
2021/07/16 00:28:07;;;;;;;30.42;18.58;;;20.60;96.90;;;;;;4970578;28;20031;-59
2021/07/16 00:30:33;;;;;;;20.98;17.00;;;20.50;97.10;;;;;;4969387;28;20498;-61
2021/07/16 00:32:58;;;;;;;25.73;18.70;;;20.50;97.40;;;;;;4975084;28;20036;-61
2021/07/16 00:35:24;;;;;;;25.48;17.38;;;20.30;97.10;;;;;;4970396;28;20035;-61
2021/07/16 00:37:49;;;;;;;24.30;17.33;;;20.30;97.20;;;;;;4968868;28;20053;-60
2021/07/16 00:40:15;;;;;;;26.17;18.95;;;20.30;97.20;;;;;;4968987;28;20034;-61
2021/07/16 00:42:41;;;;;;;21.95;17.83;;;20.30;97.20;;;;;;4969841;28;20115;-61
2021/07/16 00:45:09;;;;;;;23.85;16.42;;;20.20;97.30;;;;;;4968431;28;20119;-60
2021/07/16 00:47:35;;;;;;;23.55;16.63;;;20.10;97.50;;;;;;4969227;28;20035;-61
2021/07/16 00:50:00;;;;;;;26.25;16.20;;;20.00;97.60;;;;;;4977369;28;20037;-60
2021/07/16 00:52:26;;;;;;;26.33;17.48;;;19.90;97.80;;;;;;4974600;28;20428;-61
2021/07/16 00:54:52;;;;;;;26.20;15.77;;;19.90;97.80;;;;;;4968857;28;20062;-61
2021/07/16 00:57:18;;;;;;;21.80;14.88;;;19.90;97.80;;;;;;4968573;28;21436;-60
2021/07/16 00:59:44;;;;;;;21.60;15.85;;;19.90;97.80;;;;;;4977283;28;20058;-61
2021/07/16 01:02:19;;;;;;;24.02;17.25;;;19.90;97.80;;;;;;5006771;23;20047;-78
2021/07/16 01:08:32;;;;;;;23.05;16.42;;;19.90;97.80;;;;;;4999728;28;20033;-77
2021/07/16 01:12:04;;;;;;;22.73;15.48;;;20.00;97.70;;;;;;5010130;28;20034;-77
2021/07/16 01:18:22;;;;;;;26.50;16.38;;;20.00;97.60;;;;;;4985602;28;20048;-78
2021/07/16 01:21:10;;;;;;;23.55;16.27;;;20.00;97.70;;;;;;4998862;28;20125;-78
2021/07/16 01:27:03;;;;;;;21.50;16.08;;;19.90;97.80;;;;;;5001007;28;20113;-78
2021/07/16 01:29:46;;;;;;;24.77;14.70;;;19.90;97.70;;;;;;5018685;28;20039;-77
2021/07/16 01:36:37;;;;;;;20.08;12.93;;;20.00;97.50;;;;;;5017774;28;20536;-77
2021/07/16 01:40:02;;;;;;;16.73;11.68;;;20.10;97.40;;;;;;4999558;28;20112;-77
2021/07/16 01:43:21;;;;;;;17.13;12.40;;;20.10;97.20;;;;;;5012149;28;20083;-77
2021/07/16 01:46:05;;;;;;;16.75;11.32;;;20.10;97.40;;;;;;4962542;28;20096;-77
2021/07/16 01:48:33;;;;;;;15.68;11.77;;;20.00;97.40;;;;;;4987026;28;20027;-77
2021/07/16 01:51:26;;;;;;;;;;;20.00;97.40;;;;;;5018002;28;20041;-77
2021/07/16 01:54:23;;;;;;;15.75;12.23;;;20.00;97.30;;;;;;5000156;28;19957;-78
2021/07/16 01:56:49;;;;;;;13.68;12.27;;;20.00;97.50;;;;;;5017251;28;20018;-77
2021/07/16 01:59:15;;;;;;;13.32;9.88;;;19.90;97.60;;;;;;5017997;28;20038;-77
2021/07/16 02:01:40;;;;;;;16.75;11.77;;;19.90;97.70;;;;;;5013499;28;20095;-78
2021/07/16 02:04:06;;;;;;;16.83;10.88;;;19.80;97.80;;;;;;5001397;28;20108;-77
2021/07/16 02:06:32;;;;;;;16.55;11.30;;;19.80;97.80;;;;;;4999906;28;20045;-77
2021/07/16 02:08:59;;;;;;;17.52;11.20;;;19.90;97.70;;;;;;5000379;28;20045;-77
2021/07/16 02:11:27;;;;;;;24.75;15.65;;;19.90;97.70;;;;;;5002168;28;20033;-78
2021/07/16 02:13:53;;;;;;;22.27;14.30;;;20.00;97.50;;;;;;5004656;28;20044;-78
2021/07/16 02:16:19;;;;;;;28.83;14.10;;;20.00;97.40;;;;;;5002587;28;20025;-78
2021/07/16 02:18:51;;;;;;;23.73;14.45;;;20.10;97.40;;;;;;5002293;28;20389;-78
2021/07/16 02:21:17;;;;;;;18.55;13.35;;;20.10;97.30;;;;;;5002433;28;20439;-78
2021/07/16 02:23:43;;;;;;;18.23;12.15;;;20.10;97.40;;;;;;5004715;28;20025;-79
2021/07/16 02:26:09;;;;;;;18.38;13.20;;;20.00;97.40;;;;;;5002780;28;20112;-77
2021/07/16 02:28:35;;;;;;;17.48;13.77;;;20.00;97.30;;;;;;5003778;28;20058;-77
2021/07/16 02:31:02;;;;;;;15.63;11.48;;;20.00;97.20;;;;;;5003741;28;20034;-77
2021/07/16 02:33:28;;;;;;;15.68;12.82;;;20.00;97.30;;;;;;5004439;28;20034;-77
2021/07/16 02:35:54;;;;;;;18.75;11.90;;;20.10;97.20;;;;;;5002676;28;20085;-77
2021/07/16 02:38:22;;;;;;;16.38;11.60;;;20.10;97.10;;;;;;5003662;28;20038;-77
2021/07/16 02:40:48;;;;;;;15.90;12.43;;;20.10;97.10;;;;;;5003954;28;20492;-78
2021/07/16 02:43:15;;;;;;;18.30;11.70;;;20.00;97.30;;;;;;5002992;28;20092;-78
2021/07/16 02:45:42;;;;;;;19.67;13.93;;;19.90;97.60;;;;;;5003453;28;20893;-77
2021/07/16 02:48:08;;;;;;;17.15;12.30;;;19.80;97.70;;;;;;5001733;28;20088;-78
2021/07/16 02:50:39;;;;;;;14.77;10.10;;;19.70;97.70;;;;;;5002011;28;20026;-77
2021/07/16 02:53:06;;;;;;;18.58;12.75;;;19.70;97.80;;;;;;5002405;28;20057;-78
2021/07/16 02:55:31;;;;;;;22.83;13.15;;;19.80;97.70;;;;;;5002348;28;20018;-78
2021/07/16 02:57:57;;;;;;;16.55;11.35;;;19.80;97.70;;;;;;5003301;28;20093;-78
2021/07/16 03:00:27;;;;;;;15.52;11.50;;;19.80;97.60;;;;;;5002109;28;20037;-77
2021/07/16 03:02:53;;;;;;;17.38;12.15;;;19.90;97.50;;;;;;5002094;28;20037;-78
2021/07/16 03:05:21;;;;;;;18.88;11.27;;;20.00;97.40;;;;;;5005204;28;20037;-78
2021/07/16 03:07:48;;;;;;;14.90;9.90;;;20.10;97.30;;;;;;5002633;28;20030;-77
2021/07/16 03:10:20;;;;;;;11.18;8.85;;;20.10;97.30;;;;;;5003432;28;20432;-77
2021/07/16 03:12:45;;;;;;;14.93;9.93;;;20.20;97.20;;;;;;5001505;28;20092;-77
2021/07/16 03:15:14;;;;;;;16.17;11.65;;;20.30;97.10;;;;;;5003862;28;20436;-78
2021/07/16 03:17:40;;;;;;;14.60;11.20;;;20.30;97.10;;;;;;5002406;28;20034;-78
2021/07/16 03:20:08;;;;;;;15.23;11.15;;;20.10;97.20;;;;;;5001162;28;20034;-77
2021/07/16 03:22:33;;;;;;;12.48;10.18;;;20.10;97.20;;;;;;5000413;28;20034;-77
2021/07/16 03:24:59;;;;;;;23.23;11.60;;;20.10;97.20;;;;;;5001937;28;20432;-77
2021/07/16 03:27:24;;;;;;;18.65;11.05;;;20.20;97.20;;;;;;5000910;28;20049;-77
2021/07/16 03:29:50;;;;;;;13.82;11.75;;;20.10;97.40;;;;;;5001867;28;20038;-78
2021/07/16 03:32:15;;;;;;;15.18;10.52;;;20.10;97.40;;;;;;5001161;28;20030;-78
2021/07/16 03:34:41;;;;;;;18.67;11.55;;;20.00;97.50;;;;;;5001694;28;20033;-78
2021/07/16 03:37:06;;;;;;;16.17;11.23;;;19.90;97.70;;;;;;5001946;28;20038;-77
2021/07/16 03:39:32;;;;;;;12.48;10.77;;;19.80;97.90;;;;;;5002755;28;20109;-77
2021/07/16 03:41:58;;;;;;;16.55;11.10;;;19.70;97.80;;;;;;5001101;28;20203;-78
2021/07/16 03:44:24;;;;;;;17.73;12.70;;;19.80;97.90;;;;;;5001619;28;20091;-78
2021/07/16 03:46:49;;;;;;;15.93;10.48;;;19.70;98.00;;;;;;5001564;28;20034;-78
2021/07/16 03:49:15;;;;;;;11.15;9.45;;;19.60;98.20;;;;;;5003618;28;20037;-76
2021/07/16 03:51:40;;;;;;;15.05;10.60;;;19.60;98.30;;;;;;5000989;28;20477;-77
2021/07/16 03:54:06;;;;;;;13.60;9.02;;;19.50;98.30;;;;;;5001028;28;20030;-77
2021/07/16 03:56:31;;;;;;;17.52;9.50;;;19.60;98.20;;;;;;5002449;28;20143;-78
2021/07/16 03:58:57;;;;;;;18.45;10.07;;;19.70;98.10;;;;;;5002803;28;20080;-76
2021/07/16 04:01:22;;;;;;;10.25;7.95;;;19.80;97.90;;;;;;5000860;28;20034;-77
2021/07/16 04:03:48;;;;;;;16.30;9.65;;;19.90;98.00;;;;;;5002301;28;20129;-76
2021/07/16 04:06:14;;;;;;;13.57;9.45;;;20.00;97.60;;;;;;5001683;28;20037;-78
2021/07/16 04:08:40;;;;;;;11.80;8.27;;;20.00;97.50;;;;;;5002430;28;20057;-78
2021/07/16 04:11:05;;;;;;;11.35;8.65;;;20.00;97.60;;;;;;5001135;28;20131;-77
2021/07/16 04:13:31;;;;;;;13.52;8.52;;;19.90;97.50;;;;;;5000192;28;20025;-78
2021/07/16 04:15:57;;;;;;;12.93;9.10;;;19.90;97.60;;;;;;4999216;28;20057;-79
2021/07/16 04:18:22;;;;;;;15.25;8.73;;;19.80;97.80;;;;;;4998997;28;20034;-78
2021/07/16 04:20:48;;;;;;;14.82;9.05;;;19.60;98.10;;;;;;5000067;28;20105;-77
2021/07/16 04:23:14;;;;;;;18.13;9.48;;;19.50;98.20;;;;;;5000522;28;20038;-77
2021/07/16 04:25:39;;;;;;;13.45;9.38;;;19.50;98.30;;;;;;5001595;28;20040;-77
2021/07/16 04:28:05;;;;;;;16.05;9.07;;;19.60;98.10;;;;;;5000027;28;20093;-78
2021/07/16 04:30:33;;;;;;;12.63;9.30;;;19.60;98.10;;;;;;5000342;28;20137;-78
2021/07/16 04:33:01;;;;;;;12.45;9.02;;;19.60;98.00;;;;;;5001275;28;20485;-78
2021/07/16 04:35:28;;;;;;;16.45;10.10;;;19.60;98.00;;;;;;5002422;28;20056;-78
2021/07/16 04:37:53;;;;;;;19.35;9.90;;;19.50;98.10;;;;;;5001220;28;20397;-78
2021/07/16 04:40:21;;;;;;;27.58;11.10;;;19.50;98.20;;;;;;5000831;28;20025;-77
2021/07/16 04:42:49;;;;;;;22.33;9.60;;;19.40;98.30;;;;;;5002676;28;20037;-78
2021/07/16 04:45:15;;;;;;;15.98;9.32;;;19.50;98.40;;;;;;5001103;28;20066;-78
2021/07/16 04:47:42;;;;;;;16.45;9.38;;;19.50;98.10;;;;;;5002143;28;20080;-73
2021/07/16 04:50:09;;;;;;;14.35;9.60;;;19.50;98.10;;;;;;5000151;28;20737;-73
2021/07/16 04:52:42;;;;;;;14.90;10.15;;;19.60;98.00;;;;;;5000520;28;20453;-73
2021/07/16 04:55:09;;;;;;;14.98;9.18;;;19.50;98.00;;;;;;5004180;28;20046;-73
2021/07/16 04:57:35;;;;;;;16.40;10.80;;;19.40;98.20;;;;;;5001561;28;20085;-73
2021/07/16 05:00:02;;;;;;;15.95;10.45;;;19.30;98.30;;;;;;5002727;28;20022;-73
2021/07/16 05:02:28;;;;;;;20.33;10.25;;;19.20;98.50;;;;;;5014113;28;20037;-72
2021/07/16 05:04:53;;;;;;;19.13;10.95;;;19.00;98.80;;;;;;5001527;28;20056;-73
2021/07/16 05:07:19;;;;;;;26.55;11.00;;;18.90;99.00;;;;;;5000407;28;20088;-74
2021/07/16 05:09:44;;;;;;;22.77;12.30;;;18.90;99.10;;;;;;5001342;28;20478;-74
2021/07/16 05:12:10;;;;;;;19.58;10.93;;;18.80;99.30;;;;;;5001432;28;20041;-73
2021/07/16 05:14:35;;;;;;;16.17;10.88;;;18.70;99.50;;;;;;4999483;28;20030;-75
2021/07/16 05:17:01;;;;;;;21.48;12.20;;;18.70;99.60;;;;;;4998624;28;20029;-75
2021/07/16 05:19:26;;;;;;;21.65;10.88;;;18.70;99.60;;;;;;5014968;28;20102;-75
2021/07/16 05:21:52;;;;;;;16.38;10.48;;;18.70;99.70;;;;;;4998494;28;20029;-75
2021/07/16 05:24:17;;;;;;;24.02;12.43;;;18.70;99.80;;;;;;4999354;28;20034;-75
2021/07/16 05:26:43;;;;;;;22.92;12.23;;;18.60;99.80;;;;;;5014523;28;20030;-75
2021/07/16 05:29:08;;;;;;;25.65;12.55;;;18.60;99.90;;;;;;4998917;28;20116;-75
2021/07/16 05:31:34;;;;;;;23.58;11.45;;;18.50;99.90;;;;;;5005868;28;20412;-74
2021/07/16 05:33:59;;;;;;;22.67;11.90;;;18.50;99.90;;;;;;4999138;28;20026;-74
2021/07/16 05:36:25;;;;;;;24.48;12.57;;;18.50;99.90;;;;;;4997912;28;20456;-75
2021/07/16 05:38:51;;;;;;;22.48;12.07;;;18.50;99.90;;;;;;4999471;28;20043;-75
2021/07/16 05:41:16;;;;;;;21.58;12.13;;;18.50;99.90;;;;;;4999312;28;20033;-74
2021/07/16 05:43:42;;;;;;;31.77;12.35;;;18.50;99.90;;;;;;4999261;28;20053;-74
2021/07/16 05:46:07;;;;;;;20.23;11.82;;;18.50;99.90;;;;;;4998890;28;20035;-75
2021/07/16 05:48:33;;;;;;;23.10;11.30;;;18.60;99.90;;;;;;5017498;28;20062;-75
2021/07/16 05:51:00;;;;;;;28.90;12.52;;;18.70;99.80;;;;;;5017010;28;21011;-79
2021/07/16 05:53:26;;;;;;;32.20;12.93;;;18.60;99.70;;;;;;5015949;28;20038;-77
2021/07/16 05:55:52;;;;;;;23.80;12.20;;;18.60;99.60;;;;;;5019221;28;20509;-77
2021/07/16 05:58:17;;;;;;;35.17;12.13;;;18.60;99.60;;;;;;5017788;28;20049;-76
2021/07/16 06:00:43;;;;;;;27.92;13.88;;;18.60;99.70;;;;;;5003927;28;20022;-74
2021/07/16 06:03:09;;;;;;;27.05;13.80;;;18.70;99.60;;;;;;5017592;28;20137;-74
2021/07/16 06:05:34;;;;;;;32.53;13.60;;;18.70;99.40;;;;;;4998683;28;20057;-75
2021/07/16 06:08:00;;;;;;;38.55;14.20;;;18.70;99.40;;;;;;4999935;28;20034;-77
2021/07/16 06:10:27;;;;;;;25.05;12.88;;;18.70;99.40;;;;;;5007736;28;20033;-74
2021/07/16 06:12:52;;;;;;;32.05;12.93;;;18.70;99.40;;;;;;5002315;28;20034;-74
2021/07/16 06:15:18;;;;;;;30.95;14.02;;;18.60;99.30;;;;;;5002421;28;20449;-74
2021/07/16 06:17:44;;;;;;;36.58;13.98;;;18.60;99.40;;;;;;5015649;28;20418;-74
2021/07/16 06:20:13;;;;;;;33.60;14.10;;;18.50;99.50;;;;;;5001622;28;20081;-74
2021/07/16 06:22:39;;;;;;;32.00;13.70;;;18.50;99.50;;;;;;5001420;28;20034;-74
2021/07/16 06:25:06;;;;;;;29.27;14.15;;;18.60;99.50;;;;;;4998611;28;20497;-75
2021/07/16 06:27:31;;;;;;;34.30;14.40;;;18.70;99.40;;;;;;5000833;28;20054;-74
2021/07/16 06:29:57;;;;;;;29.92;13.65;;;18.70;99.30;;;;;;4999792;28;20081;-75
2021/07/16 06:32:23;;;;;;;34.17;12.90;;;18.70;99.20;;;;;;5001119;28;20060;-76
2021/07/16 06:34:48;;;;;;;27.58;12.38;;;18.60;99.30;;;;;;4999642;28;20026;-74
2021/07/16 06:37:14;;;;;;;31.00;14.05;;;18.60;99.40;;;;;;5000476;28;20092;-74
2021/07/16 06:39:40;;;;;;;29.77;14.27;;;18.50;99.50;;;;;;5000485;28;20589;-74
2021/07/16 06:42:06;;;;;;;28.95;13.55;;;18.50;99.60;;;;;;4997585;28;20084;-74
2021/07/16 06:44:32;;;;;;;24.85;13.77;;;18.60;99.70;;;;;;4999849;28;20018;-74
2021/07/16 06:46:58;;;;;;;25.02;13.40;;;18.60;99.70;;;;;;5016211;28;20030;-74
2021/07/16 06:49:26;;;;;;;31.88;14.18;;;18.60;99.70;;;;;;4998694;28;20033;-73
2021/07/16 06:51:57;;;;;;;30.13;13.20;;;18.60;99.60;;;;;;4998867;28;20034;-74
2021/07/16 06:54:24;;;;;;;30.13;13.60;;;18.60;99.60;;;;;;5000612;28;20120;-73
2021/07/16 06:56:49;;;;;;;29.23;12.20;;;18.60;99.70;;;;;;4998186;28;20022;-75
2021/07/16 06:59:15;;;;;;;23.10;12.68;;;18.60;99.80;;;;;;4998381;28;20034;-74
2021/07/16 07:01:41;;;;;;;34.15;13.13;;;18.60;99.80;;;;;;5023583;23;20046;-78
2021/07/16 07:04:06;;;;;;;28.73;13.85;;;18.60;99.70;;;;;;5000325;28;20025;-79
2021/07/16 07:06:32;;;;;;;33.45;13.43;;;18.60;99.70;;;;;;5000537;28;20053;-78
2021/07/16 07:08:58;;;;;;;27.35;14.05;;;18.60;99.80;;;;;;4998855;28;20096;-79
2021/07/16 07:11:23;;;;;;;24.55;13.43;;;18.60;99.80;;;;;;4997113;28;20034;-79
2021/07/16 07:13:49;;;;;;;25.98;13.50;;;18.60;99.70;;;;;;4997873;28;20053;-79
2021/07/16 07:16:17;;;;;;;25.70;13.55;;;18.60;99.80;;;;;;4997461;28;20042;-78
2021/07/16 07:18:43;;;;;;;23.00;12.40;;;18.60;99.60;;;;;;4998702;28;20088;-77
2021/07/16 07:21:09;;;;;;;30.15;12.60;;;18.60;99.70;;;;;;5013242;28;20477;-77
2021/07/16 07:23:35;;;;;;;28.73;14.15;;;18.70;99.60;;;;;;5011372;28;20037;-77
2021/07/16 07:26:00;;;;;;;31.23;14.60;;;18.80;99.40;;;;;;4999687;28;20030;-77
2021/07/16 07:28:26;;;;;;;30.10;13.95;;;18.80;99.30;;;;;;4999128;28;20034;-77
2021/07/16 07:30:52;;;;;;;28.67;14.25;;;18.80;99.20;;;;;;4999047;28;20050;-79
2021/07/16 07:33:17;;;;;;;24.60;13.82;;;18.90;99.40;;;;;;4998134;28;20400;-82
2021/07/16 07:35:43;;;;;;;32.72;15.98;;;18.90;99.10;;;;;;4998320;28;20133;-81
2021/07/16 07:38:09;;;;;;;26.25;13.30;;;19.00;98.90;;;;;;4998167;28;20022;-80
2021/07/16 07:40:34;;;;;;;29.88;13.13;;;19.00;98.70;;;;;;4998624;28;20026;-81
2021/07/16 07:43:01;;;;;;;27.70;13.35;;;19.00;98.50;;;;;;4997052;28;20030;-83
2021/07/16 07:45:27;;;;;;;23.45;12.65;;;18.90;98.50;;;;;;5015162;28;20030;-80
2021/07/16 07:47:53;;;;;;;22.45;12.43;;;18.80;98.60;;;;;;4995985;28;20033;-76
2021/07/16 07:50:18;;;;;;;27.73;12.35;;;18.80;98.60;;;;;;4996504;28;20033;-78
2021/07/16 07:52:45;;;;;;;22.70;13.27;;;18.80;98.50;;;;;;4998556;28;20042;-76
2021/07/16 07:55:13;;;;;;;28.48;14.20;;;18.90;98.50;;;;;;4998050;28;20473;-76
2021/07/16 07:57:39;;;;;;;40.65;16.63;;;18.90;98.50;;;;;;5001483;28;20026;-76
2021/07/16 08:00:07;;;;;;;31.55;15.50;;;19.00;98.30;;;;;;4999592;28;20017;-75
2021/07/16 08:02:33;;;;;;;33.83;15.40;;;19.10;98.20;;;;;;4999219;28;20037;-76
2021/07/16 08:04:58;;;;;;;27.13;12.75;;;19.20;97.80;;;;;;4997745;28;20030;-77
2021/07/16 08:07:23;;;;;;;30.17;15.75;;;19.20;98.00;;;;;;5007641;28;20069;-76
2021/07/16 08:09:49;;;;;;;32.40;15.73;;;19.40;97.80;;;;;;4998851;28;20104;-77
2021/07/16 08:12:15;;;;;;;24.77;13.85;;;19.40;97.50;;;;;;4998109;28;20506;-78
2021/07/16 08:14:40;;;;;;;30.00;14.43;;;19.40;97.30;;;;;;4997981;28;20058;-77
2021/07/16 08:17:07;;;;;;;30.77;14.05;;;19.40;97.30;;;;;;5015011;28;20087;-77
2021/07/16 08:19:34;;;;;;;36.53;13.38;;;19.40;97.20;;;;;;5012933;28;20501;-77
2021/07/16 08:22:00;;;;;;;45.40;15.77;;;19.30;97.10;;;;;;4998788;28;20032;-77
2021/07/16 08:24:25;;;;;;;31.60;15.68;;;19.30;97.20;;;;;;4997951;28;20034;-76
2021/07/16 08:26:51;;;;;;;31.98;14.65;;;19.30;97.30;;;;;;5013699;28;20034;-76
2021/07/16 08:29:17;;;;;;;33.42;12.57;;;19.30;97.00;;;;;;4996630;28;20487;-80
2021/07/16 08:31:44;;;;;;;34.00;13.68;;;19.30;96.90;;;;;;4997252;28;20034;-76
2021/07/16 08:34:10;;;;;;;30.00;12.65;;;19.20;97.00;;;;;;4998768;28;20070;-75
2021/07/16 08:36:36;;;;;;;21.88;12.20;;;19.10;97.10;;;;;;4999056;28;20022;-80
2021/07/16 08:39:04;;;;;;;29.95;12.23;;;19.20;97.30;;;;;;4997610;28;20037;-80
2021/07/16 08:41:30;;;;;;;30.67;13.63;;;19.20;97.00;;;;;;4998392;28;20025;-77
2021/07/16 08:43:55;;;;;;;31.17;14.30;;;19.20;97.00;;;;;;4998018;28;20081;-78
2021/07/16 08:46:21;;;;;;;28.80;14.40;;;19.20;96.70;;;;;;4999384;28;20565;-77
2021/07/16 08:48:50;;;;;;;31.70;12.60;;;19.20;96.80;;;;;;5013583;28;20045;-78
2021/07/16 08:51:21;;;;;;;28.17;13.27;;;19.30;96.90;;;;;;4998322;28;20030;-77
2021/07/16 08:53:53;;;;;;;30.20;13.93;;;19.40;96.80;;;;;;5012307;28;20438;-78
2021/07/16 08:56:20;;;;;;;28.40;13.98;;;19.50;96.50;;;;;;4998829;28;20025;-79
2021/07/16 08:58:45;;;;;;;34.42;13.30;;;19.60;96.50;;;;;;4998564;28;20014;-77
2021/07/16 09:01:12;;;;;;;23.10;12.68;;;19.60;96.40;;;;;;4998169;28;20386;-77
2021/07/16 09:03:59;;;;;;;32.05;13.13;;;19.60;96.20;;;;;;5012421;28;20096;-78
2021/07/16 09:06:42;;;;;;;24.08;11.70;;;19.60;96.40;;;;;;4997672;28;20052;-79
2021/07/16 09:09:08;;;;;;;28.92;14.70;;;19.70;96.20;;;;;;4996377;28;20034;-76
2021/07/16 09:11:45;;;;;;;25.77;13.73;;;19.70;96.00;;;;;;4996325;28;20034;-77
2021/07/16 09:14:37;;;;;;;32.80;15.07;;;19.70;96.00;;;;;;4997174;28;20034;-82
2021/07/16 09:17:15;;;;;;;33.70;14.93;;;19.60;95.90;;;;;;4998803;28;20046;-79
2021/07/16 09:19:45;;;;;;;24.15;14.23;;;19.60;96.10;;;;;;4998024;28;20019;-79
2021/07/16 09:22:23;;;;;;;35.47;16.58;;;19.70;96.20;;;;;;5000502;28;20025;-79
2021/07/16 09:24:55;;;;;;;31.92;14.60;;;19.80;95.90;;;;;;5000582;28;20433;-77
2021/07/16 09:27:40;;;;;;;31.83;16.70;;;19.80;96.00;;;;;;5002034;28;20057;-78
2021/07/16 09:30:29;;;;;;;32.40;15.43;;;20.10;96.00;;;;;;5000710;28;20022;-79
2021/07/16 09:33:05;;;;;;;23.58;13.48;;;20.30;95.10;;;;;;4996663;28;20424;-81
2021/07/16 09:35:33;;;;;;;31.90;16.20;;;20.40;95.10;;;;;;4999356;28;21007;-86
2021/07/16 09:38:15;;;;;;;29.50;14.00;;;20.40;95.00;;;;;;5000189;28;20026;-83
2021/07/16 09:40:46;;;;;;;27.92;14.85;;;20.30;94.80;;;;;;4999873;28;20022;-85
2021/07/16 09:43:12;;;;;;;34.97;16.88;;;20.20;95.00;;;;;;5007068;28;20077;-78
2021/07/16 09:45:39;;;;;;;29.98;15.35;;;20.10;95.10;;;;;;5001295;28;20398;-76
2021/07/16 09:48:23;;;;;;;37.95;16.58;;;20.00;95.30;;;;;;5000900;28;20029;-75
2021/07/16 09:51:09;;;;;;;31.98;18.08;;;20.10;95.10;;;;;;4999851;28;20032;-76
2021/07/16 09:53:52;;;;;;;33.72;20.02;;;20.20;95.20;;;;;;5001328;28;20069;-76
2021/07/16 09:56:26;;;;;;;39.47;21.05;;;20.30;94.90;;;;;;5001564;28;20493;-78
2021/07/16 09:59:09;;;;;;;32.25;20.73;;;20.30;94.90;;;;;;5015896;28;20026;-77
2021/07/16 10:01:38;;;;;;;39.47;22.73;;;20.30;95.00;;;;;;5001644;28;20033;-77
2021/07/16 10:04:18;;;;;;;44.28;23.65;;;20.30;95.00;;;;;;5004135;28;20029;-78
2021/07/16 10:06:49;;;;;;;41.63;25.52;;;20.40;94.70;;;;;;5001249;28;20029;-77
2021/07/16 10:09:16;;;;;;;45.78;24.27;;;20.40;94.80;;;;;;4999810;28;20076;-76
2021/07/16 10:11:47;;;;;;;38.83;21.52;;;20.40;94.80;;;;;;5001346;28;20037;-78
2021/07/16 10:14:14;;;;;;;36.45;19.85;;;20.40;94.70;;;;;;4999454;28;20481;-78
2021/07/16 10:16:43;;;;;;;37.13;17.48;;;20.30;94.80;;;;;;4999388;28;20497;-77
2021/07/16 10:19:08;;;;;;;23.67;16.17;;;20.50;94.70;;;;;;5000483;28;20121;-77
2021/07/16 10:21:37;;;;;;;34.28;16.15;;;20.50;94.60;;;;;;5007837;28;20684;-77
2021/07/16 10:24:03;;;;;;;42.22;16.77;;;20.50;94.60;;;;;;5001160;28;20034;-75
2021/07/16 10:26:29;;;;;;;38.42;14.75;;;20.60;94.60;;;;;;5001958;28;20029;-77
2021/07/16 10:28:55;;;;;;;37.05;14.98;;;20.70;94.60;;;;;;5001537;28;20034;-82
2021/07/16 10:31:30;;;;;;;35.30;18.25;;;20.70;94.40;;;;;;5000356;28;20220;-81
2021/07/16 10:33:57;;;;;;;37.22;19.77;;;20.80;94.30;;;;;;4997796;28;20837;-80
2021/07/16 10:36:45;;;;;;;29.58;18.88;;;20.90;94.40;;;;;;4998785;28;20038;-82
2021/07/16 10:39:18;;;;;;;39.10;20.67;;;21.10;94.20;;;;;;4999744;28;20026;-81
2021/07/16 10:41:44;;;;;;;44.45;24.83;;;21.20;94.10;;;;;;5000615;28;20029;-81
2021/07/16 10:44:12;;;;;;;43.85;26.25;;;21.40;93.60;;;;;;5000434;28;20347;-81
2021/07/16 10:46:39;;;;;;;49.22;25.23;;;21.40;93.40;;;;;;4999661;28;20122;-81
2021/07/16 10:49:07;;;;;;;35.78;23.45;;;21.40;93.10;;;;;;5000157;28;20033;-83
2021/07/16 10:51:34;;;;;;;33.53;20.80;;;21.40;93.30;;;;;;4999886;28;20041;-82
2021/07/16 10:54:02;;;;;;;37.60;21.33;;;21.40;93.20;;;;;;4999320;28;20481;-83
2021/07/16 10:56:42;;;;;;;31.83;17.88;;;21.50;93.10;;;;;;5015293;28;20124;-83
2021/07/16 10:59:09;;;;;;;33.28;18.25;;;21.50;93.30;;;;;;4999011;28;20039;-80
2021/07/16 11:01:40;;;;;;;31.23;17.17;;;21.70;93.10;;;;;;4999055;28;20031;-78
2021/07/16 11:04:26;;;;;;;30.10;14.75;;;21.80;92.70;;;;;;5001773;28;20022;-83
2021/07/16 11:07:06;;;;;;;37.60;15.40;;;21.70;92.60;;;;;;4999004;28;20034;-78
2021/07/16 11:09:38;;;;;;;31.63;14.57;;;21.80;92.40;;;;;;4996928;28;20395;-76
2021/07/16 11:12:26;;;;;;;29.85;14.63;;;21.70;92.50;;;;;;4999168;28;20026;-76
2021/07/16 11:14:54;;;;;;;25.85;14.70;;;21.80;92.70;;;;;;4999300;28;20026;-78
2021/07/16 11:17:36;;;;;;;36.08;14.32;;;21.90;92.40;;;;;;4997511;28;20026;-75
2021/07/16 11:20:20;;;;;;;29.27;15.38;;;21.80;92.40;;;;;;5009715;28;20496;-76
2021/07/16 11:22:58;;;;;;;28.08;14.70;;;21.90;92.40;;;;;;5001235;28;20030;-77
2021/07/16 11:25:25;;;;;;;20.83;14.55;;;22.00;92.50;;;;;;5006570;28;20440;-78
2021/07/16 11:27:50;;;;;;;27.25;13.98;;;22.10;92.40;;;;;;5015100;28;20033;-78
2021/07/16 11:30:16;;;;;;;29.35;14.70;;;22.10;91.90;;;;;;5001616;28;20034;-80
2021/07/16 11:32:42;;;;;;;26.55;13.55;;;22.10;91.90;;;;;;4999414;28;20034;-80
2021/07/16 11:35:09;;;;;;;29.48;13.85;;;21.90;91.90;;;;;;5011772;28;20537;-80
2021/07/16 11:37:41;;;;;;;25.52;12.70;;;21.70;92.10;;;;;;4997841;28;20010;-80
2021/07/16 11:40:26;;;;;;;31.08;13.93;;;21.70;92.30;;;;;;4997704;28;20501;-77
2021/07/16 11:42:53;;;;;;;21.52;12.38;;;21.60;92.50;;;;;;4998809;28;20037;-79
2021/07/16 11:45:29;;;;;;;35.13;13.52;;;21.60;92.70;;;;;;4998633;28;20026;-80
2021/07/16 11:47:56;;;;;;;26.27;13.90;;;21.70;92.50;;;;;;4999345;28;20046;-77
2021/07/16 11:50:23;;;;;;;22.92;13.90;;;21.70;92.50;;;;;;4998700;28;20044;-79
2021/07/16 11:52:51;;;;;;;31.75;14.02;;;21.70;92.40;;;;;;5001304;28;20149;-80
2021/07/16 11:55:23;;;;;;;33.00;14.35;;;21.80;92.40;;;;;;5001041;28;20737;-80
2021/07/16 11:57:49;;;;;;;23.52;14.52;;;21.70;92.20;;;;;;4999856;28;20022;-83
2021/07/16 12:00:16;;;;;;;38.10;14.55;;;21.70;92.50;;;;;;4999141;28;20022;-81
2021/07/16 12:02:41;;;;;;;28.40;17.10;;;21.70;92.50;;;;;;4999477;28;20040;-81
2021/07/16 12:05:08;;;;;;;28.90;16.00;;;21.80;92.50;;;;;;4997732;28;20037;-82
2021/07/16 12:07:42;;;;;;;30.30;14.02;;;22.00;92.20;;;;;;4997350;28;20061;-82
2021/07/16 12:10:19;;;;;;;34.20;16.13;;;22.10;92.20;;;;;;4998513;28;20086;-81
2021/07/16 12:12:45;;;;;;;32.05;14.20;;;22.10;92.00;;;;;;4999580;28;20369;-82
2021/07/16 12:15:15;;;;;;;30.88;14.48;;;22.10;92.00;;;;;;5000485;28;20105;-80
2021/07/16 12:17:55;;;;;;;29.25;14.40;;;22.10;92.00;;;;;;5003218;28;20022;-81
2021/07/16 12:20:29;;;;;;;34.78;14.20;;;22.10;92.00;;;;;;5004747;28;20033;-81
2021/07/16 12:22:55;;;;;;;38.58;15.65;;;22.10;91.80;;;;;;5000593;28;20026;-82
2021/07/16 12:25:21;;;;;;;28.15;11.93;;;22.10;91.90;;;;;;5000297;28;20109;-81
2021/07/16 12:28:06;;;;;;;36.53;13.30;;;22.10;91.90;;;;;;4999492;28;20121;-81
2021/07/16 12:30:32;;;;;;;32.75;12.35;;;22.00;92.00;;;;;;5001141;28;20033;-81
2021/07/16 12:33:07;;;;;;;23.83;12.30;;;22.00;92.00;;;;;;5001129;28;20097;-82
2021/07/16 12:35:39;;;;;;;28.67;12.65;;;22.00;92.00;;;;;;4998085;28;20061;-82
2021/07/16 12:38:08;;;;;;;26.42;12.70;;;22.00;92.00;;;;;;4999430;28;20026;-82
2021/07/16 12:40:34;;;;;;;27.08;13.85;;;21.90;92.10;;;;;;4999578;28;20026;-81
2021/07/16 12:43:08;;;;;;;27.90;12.40;;;21.90;92.10;;;;;;5013947;28;20117;-82
2021/07/16 12:45:35;;;;;;;24.15;12.68;;;21.80;92.30;;;;;;5015659;28;20028;-82
2021/07/16 12:48:25;;;;;;;29.30;12.30;;;21.80;92.50;;;;;;4998297;28;20489;-80
2021/07/16 12:50:52;;;;;;;23.13;11.30;;;21.80;92.40;;;;;;4997940;28;20113;-81
2021/07/16 12:53:35;;;;;;;25.20;12.77;;;21.80;92.50;;;;;;5014561;28;20038;-80